createdAt,value
2022-08-27T00:02:06.347Z,855.10
2022-08-27T00:04:36.243Z,860.35
2022-08-27T00:07:04.485Z,868.88
2022-08-27T00:09:32.331Z,853.70
2022-08-27T00:12:00.046Z,860.95
2022-08-27T00:14:28.996Z,828.65
2022-08-27T00:16:56.656Z,866.22
2022-08-27T00:19:24.388Z,854.72
2022-08-27T00:21:52.266Z,861.30
2022-08-27T00:24:19.809Z,817.13
2022-08-27T00:26:47.350Z,858.53
2022-08-27T00:29:14.891Z,924.97
2022-08-27T00:31:42.494Z,873.58
2022-08-27T00:34:12.941Z,851.75
2022-08-27T00:36:41.544Z,835.45
2022-08-27T00:39:09.236Z,822.53
2022-08-27T00:41:39.004Z,845.45
2022-08-27T00:44:07.394Z,851.75
2022-08-27T00:46:48.308Z,851.65
2022-08-27T00:49:28.775Z,826.35
2022-08-27T00:52:05.846Z,836.60
2022-08-27T00:54:33.918Z,836.90
2022-08-27T00:57:03.459Z,832.88
2022-08-27T00:59:33.142Z,819.53
2022-08-27T01:02:19.484Z,817.70
2022-08-27T01:05:04.549Z,817.30
2022-08-27T01:07:36.679Z,819.63
2022-08-27T01:10:09.103Z,824.20
2022-08-27T01:12:37.800Z,828.13
2022-08-27T01:15:12.041Z,831.25
2022-08-27T01:17:43.613Z,837.00
2022-08-27T01:20:19.725Z,821.47
2022-08-27T01:23:18.743Z,817.95
2022-08-27T01:25:46.667Z,825.60
2022-08-27T01:28:14.745Z,825.22
2022-08-27T01:30:43.151Z,819.60
2022-08-27T01:33:17.845Z,813.97
2022-08-27T01:35:48.478Z,818.80
2022-08-27T01:38:30.048Z,817.00
2022-08-27T01:41:01.419Z,816.10
2022-08-27T01:43:31.353Z,825.75
2022-08-27T01:45:59.634Z,812.60
2022-08-27T01:48:27.229Z,816.13
2022-08-27T01:50:54.726Z,823.75
2022-08-27T01:53:24.701Z,818.95
2022-08-27T01:55:54.348Z,811.80
2022-08-27T01:58:25.262Z,825.67
2022-08-27T02:00:56.612Z,823.60
2022-08-27T02:03:25.137Z,814.88
2022-08-27T02:05:52.775Z,813.92
2022-08-27T02:08:20.705Z,821.92
2022-08-27T02:10:49.921Z,826.85
2022-08-27T02:13:18.890Z,821.67
2022-08-27T02:15:46.570Z,873.70
2022-08-27T02:18:15.193Z,855.60
2022-08-27T02:20:47.242Z,840.33
2022-08-27T02:23:16.491Z,832.67
2022-08-27T02:25:45.642Z,816.10
2022-08-27T02:28:13.878Z,822.15
2022-08-27T02:30:41.622Z,816.55
2022-08-27T02:33:10.145Z,805.53
2022-08-27T02:35:44.162Z,813.10
2022-08-27T02:38:13.601Z,810.45
2022-08-27T02:40:41.465Z,816.70
2022-08-27T02:43:09.563Z,805.30
2022-08-27T02:45:39.823Z,806.83
2022-08-27T02:48:08.163Z,806.03
2022-08-27T02:50:36.601Z,809.90
2022-08-27T02:53:06.138Z,826.13
2022-08-27T02:55:34.251Z,816.67
2022-08-27T02:58:04.909Z,808.65
2022-08-27T03:00:32.433Z,819.67
2022-08-27T03:03:00.000Z,814.83
2022-08-27T03:05:27.988Z,826.38
2022-08-27T03:07:55.559Z,806.50
2022-08-27T03:10:23.243Z,812.00
2022-08-27T03:12:50.955Z,819.03
2022-08-27T03:15:19.992Z,816.10
2022-08-27T03:18:06.640Z,812.75
2022-08-27T03:20:38.382Z,819.05
2022-08-27T03:23:05.858Z,806.45
2022-08-27T03:25:33.331Z,806.05
2022-08-27T03:28:01.279Z,807.38
2022-08-27T03:30:28.702Z,815.85
2022-08-27T03:32:56.237Z,810.72
2022-08-27T03:35:23.736Z,803.58
2022-08-27T03:37:51.787Z,808.03
2022-08-27T03:40:20.028Z,803.90
2022-08-27T03:42:47.590Z,808.30
2022-08-27T03:45:16.477Z,813.85
2022-08-27T03:47:44.014Z,818.67
2022-08-27T03:50:11.906Z,811.75
2022-08-27T03:52:39.486Z,817.00
2022-08-27T03:55:08.768Z,816.92
2022-08-27T03:57:36.705Z,816.00
2022-08-27T04:00:08.578Z,821.42
2022-08-27T04:02:40.284Z,827.17
2022-08-27T04:05:11.308Z,826.22
2022-08-27T04:07:42.907Z,819.03
2022-08-27T04:10:12.594Z,839.17
2022-08-27T04:12:40.592Z,850.58
2022-08-27T04:15:09.560Z,858.58
2022-08-27T04:17:37.416Z,850.03
2022-08-27T04:20:33.605Z,856.17
2022-08-27T04:22:54.916Z,851.80
2022-08-27T04:25:22.279Z,873.13
2022-08-27T04:27:49.862Z,886.97
2022-08-27T04:30:17.366Z,892.05
2022-08-27T04:32:44.933Z,924.58
2022-08-27T04:35:12.280Z,921.80
2022-08-27T04:37:40.697Z,960.60
2022-08-27T04:40:08.708Z,995.78
2022-08-27T04:42:36.306Z,1023.95
2022-08-27T04:45:04.626Z,1030.88
2022-08-27T04:47:32.018Z,1031.55
2022-08-27T04:49:59.571Z,1033.25
2022-08-27T04:52:27.033Z,1063.10
2022-08-27T04:54:55.386Z,1077.47
2022-08-27T04:57:22.971Z,1058.53
2022-08-27T04:59:54.652Z,1050.28
2022-08-27T05:02:22.095Z,1049.35
2022-08-27T05:04:49.513Z,1067.20
2022-08-27T05:07:17.138Z,1081.47
2022-08-27T05:09:44.902Z,1094.95
2022-08-27T05:12:12.456Z,1078.15
2022-08-27T05:14:39.894Z,1097.03
2022-08-27T05:17:07.418Z,1118.45
2022-08-27T05:19:34.836Z,1129.43
2022-08-27T05:22:02.417Z,1147.63
2022-08-27T05:24:29.801Z,1145.57
2022-08-27T05:26:57.642Z,1166.53
2022-08-27T05:29:25.136Z,1168.22
2022-08-27T05:31:52.588Z,1179.45
2022-08-27T05:34:22.053Z,1174.00
2022-08-27T05:36:54.766Z,1185.78
2022-08-27T05:39:22.210Z,1188.20
2022-08-27T05:41:52.682Z,1197.40
2022-08-27T05:47:07.767Z,1180.15
2022-08-27T05:49:35.280Z,1178.00
2022-08-27T05:52:03.004Z,1192.85
2022-08-27T05:54:30.755Z,1185.80
2022-08-27T05:56:58.325Z,1188.55
2022-08-27T05:59:43.921Z,1212.47
2022-08-27T06:02:11.918Z,966.40
2022-08-27T06:04:39.361Z,1164.05
2022-08-27T06:07:09.746Z,832.88
2022-08-27T06:09:38.483Z,844.08
2022-08-27T06:12:06.649Z,819.92
2022-08-27T06:14:37.437Z,822.65
2022-08-27T06:17:06.591Z,822.10
2022-08-27T06:19:36.666Z,810.25
2022-08-27T06:22:10.443Z,745.00
2022-08-27T06:24:42.818Z,780.50
2022-08-27T06:27:16.367Z,571.20
2022-08-27T06:29:44.797Z,640.28
2022-08-27T06:32:14.937Z,635.47
2022-08-27T06:34:42.864Z,630.20
2022-08-27T06:37:10.638Z,624.40
2022-08-27T06:39:40.518Z,629.10
2022-08-27T06:42:12.057Z,648.33
2022-08-27T06:44:41.215Z,634.00
2022-08-27T06:47:09.269Z,635.42
2022-08-27T06:49:40.363Z,637.40
2022-08-27T06:52:07.966Z,651.63
2022-08-27T06:54:36.834Z,646.83
2022-08-27T06:57:04.496Z,639.75
2022-08-27T06:59:31.971Z,638.60
2022-08-27T07:01:59.550Z,641.97
2022-08-27T07:04:32.075Z,641.40
2022-08-27T07:07:02.343Z,632.50
2022-08-27T07:09:32.263Z,661.45
2022-08-27T07:12:00.452Z,641.22
2022-08-27T07:14:33.001Z,655.22
2022-08-27T07:17:06.971Z,654.58
2022-08-27T07:19:45.521Z,654.40
2022-08-27T07:22:14.484Z,670.03
2022-08-27T07:24:41.978Z,688.53
2022-08-27T07:27:10.750Z,695.17
2022-08-27T07:29:40.561Z,656.25
2022-08-27T07:32:08.063Z,678.55
2022-08-27T07:34:36.821Z,659.28
2022-08-27T07:37:04.581Z,662.63
2022-08-27T07:39:31.979Z,644.63
2022-08-27T07:42:17.813Z,645.67
2022-08-27T07:44:45.329Z,642.78
2022-08-27T07:47:13.645Z,630.42
2022-08-27T07:49:41.273Z,641.42
2022-08-27T07:52:08.631Z,634.78
2022-08-27T07:54:36.123Z,636.10
2022-08-27T07:57:04.318Z,637.13
2022-08-27T07:59:31.758Z,642.35
2022-08-27T08:01:59.350Z,639.08
2022-08-27T08:04:27.533Z,640.33
2022-08-27T08:06:56.121Z,650.30
2022-08-27T08:09:25.203Z,643.90
2022-08-27T08:11:54.149Z,640.15
2022-08-27T08:14:22.010Z,644.95
2022-08-27T08:16:49.799Z,638.38
2022-08-27T08:19:17.684Z,653.05
2022-08-27T08:21:45.111Z,631.90
2022-08-27T08:24:12.648Z,633.92
2022-08-27T08:26:42.257Z,636.97
2022-08-27T08:29:13.258Z,640.25
2022-08-27T08:31:44.108Z,638.35
2022-08-27T08:34:17.906Z,637.33
2022-08-27T08:36:46.258Z,637.03
2022-08-27T08:39:22.065Z,641.58
2022-08-27T08:41:55.789Z,639.50
2022-08-27T08:44:56.360Z,638.40
2022-08-27T08:47:32.328Z,643.15
2022-08-27T08:50:19.586Z,643.38
2022-08-27T08:53:07.141Z,644.28
2022-08-27T08:55:41.675Z,653.40
2022-08-27T08:58:19.930Z,646.00
2022-08-27T09:00:59.649Z,650.22
2022-08-27T09:03:29.194Z,644.60
2022-08-27T09:06:02.889Z,650.75
2022-08-27T09:08:42.740Z,651.20
2022-08-27T09:11:24.311Z,657.80
2022-08-27T09:14:04.879Z,662.28
2022-08-27T09:16:32.874Z,648.95
2022-08-27T09:19:02.851Z,648.08
2022-08-27T09:21:51.953Z,648.08
2022-08-27T09:24:27.934Z,645.60
2022-08-27T09:26:55.776Z,612.53
2022-08-27T09:29:27.568Z,655.40
2022-08-27T09:32:09.596Z,659.90
2022-08-27T09:34:40.537Z,625.63
2022-08-27T09:37:16.030Z,641.25
2022-08-27T09:39:56.818Z,653.92
2022-08-27T09:42:49.629Z,640.33
2022-08-27T09:45:22.231Z,627.40
2022-08-27T09:48:02.947Z,675.08
2022-08-27T09:50:43.587Z,640.30
2022-08-27T09:53:29.025Z,701.78
2022-08-27T09:56:05.209Z,824.95
2022-08-27T09:58:54.344Z,837.35
2022-08-27T10:01:29.268Z,814.50
2022-08-27T10:04:05.950Z,780.65
2022-08-27T10:06:33.675Z,753.13
2022-08-27T10:09:31.977Z,746.55
2022-08-27T10:12:19.886Z,744.58
2022-08-27T10:14:53.333Z,750.08
2022-08-27T10:17:29.741Z,744.33
2022-08-27T10:20:32.621Z,740.17
2022-08-27T10:23:34.278Z,615.95
2022-08-27T10:26:21.267Z,624.30
2022-08-27T10:29:00.441Z,584.78
2022-08-27T10:31:49.623Z,684.47
2022-08-27T10:34:26.171Z,571.70
2022-08-27T10:37:21.134Z,516.08
2022-08-27T10:40:06.748Z,527.17
2022-08-27T10:43:10.159Z,509.10
2022-08-27T10:45:46.691Z,506.92
2022-08-27T10:48:39.140Z,490.73
2022-08-27T10:51:24.673Z,466.70
2022-08-27T10:54:17.973Z,470.58
2022-08-27T11:00:02.265Z,493.42
2022-08-27T11:02:45.058Z,493.98
2022-08-27T11:05:20.831Z,32.00
2022-08-27T11:08:11.055Z,26.40
2022-08-27T11:10:47.412Z,22.08
2022-08-27T11:13:35.646Z,27.60
2022-08-27T11:16:12.475Z,24.95
2022-08-27T13:55:55.403Z,122.50
2022-08-27T13:58:27.523Z,186.30
2022-08-27T14:01:07.962Z,176.90
2022-08-27T14:03:46.096Z,170.00
2022-08-27T14:06:35.538Z,142.95
2022-08-27T14:09:20.169Z,139.52
2022-08-27T14:11:48.552Z,131.65
2022-08-27T14:14:18.561Z,125.97
2022-08-27T14:19:36.543Z,150.13
2022-08-27T17:09:07.756Z,163.18
2022-08-27T23:28:47.510Z,113.25
2022-08-27T23:31:15.509Z,98.68
2022-08-27T23:33:43.703Z,110.30
2022-08-27T23:38:38.843Z,107.57
2022-08-27T23:43:33.754Z,96.20
